sensor_id;sensor_type;location;lat;lon;timestamp;P1;durP1;ratioP1;P2;durP2;ratioP2
81396;SDS011;70852;49.908;8.126;2023-11-19T00:01:50;1.58;;;0.50;;
81396;SDS011;70852;49.908;8.126;2023-11-19T00:04:16;1.55;;;0.68;;
81396;SDS011;70852;49.908;8.126;2023-11-19T00:06:43;1.30;;;0.57;;
81396;SDS011;70852;49.908;8.126;2023-11-19T00:09:09;0.50;;;0.40;;
81396;SDS011;70852;49.908;8.126;2023-11-19T00:11:36;1.38;;;0.50;;
81396;SDS011;70852;49.908;8.126;2023-11-19T00:14:02;1.33;;;0.40;;
81396;SDS011;70852;49.908;8.126;2023-11-19T00:16:28;0.70;;;0.50;;
81396;SDS011;70852;49.908;8.126;2023-11-19T00:18:53;1.30;;;0.50;;
81396;SDS011;70852;49.908;8.126;2023-11-19T00:21:19;0.93;;;0.57;;
81396;SDS011;70852;49.908;8.126;2023-11-19T00:23:44;1.00;;;0.50;;
81396;SDS011;70852;49.908;8.126;2023-11-19T00:26:14;1.60;;;0.60;;
81396;SDS011;70852;49.908;8.126;2023-11-19T00:28:44;0.68;;;0.40;;
81396;SDS011;70852;49.908;8.126;2023-11-19T00:31:09;1.25;;;0.45;;
81396;SDS011;70852;49.908;8.126;2023-11-19T00:33:37;1.10;;;0.43;;
81396;SDS011;70852;49.908;8.126;2023-11-19T00:36:05;3.25;;;1.40;;
81396;SDS011;70852;49.908;8.126;2023-11-19T00:38:33;1.77;;;0.80;;
81396;SDS011;70852;49.908;8.126;2023-11-19T00:40:58;2.80;;;0.73;;
81396;SDS011;70852;49.908;8.126;2023-11-19T00:43:23;3.55;;;0.50;;
81396;SDS011;70852;49.908;8.126;2023-11-19T00:45:51;1.15;;;0.60;;
81396;SDS011;70852;49.908;8.126;2023-11-19T00:48:16;1.83;;;0.93;;
81396;SDS011;70852;49.908;8.126;2023-11-19T00:50:46;3.35;;;1.80;;
81396;SDS011;70852;49.908;8.126;2023-11-19T00:53:14;2.75;;;1.33;;
81396;SDS011;70852;49.908;8.126;2023-11-19T00:55:39;0.80;;;0.52;;
81396;SDS011;70852;49.908;8.126;2023-11-19T00:58:05;1.20;;;0.50;;
81396;SDS011;70852;49.908;8.126;2023-11-19T01:00:30;0.52;;;0.22;;
81396;SDS011;70852;49.908;8.126;2023-11-19T01:02:59;1.08;;;0.40;;
81396;SDS011;70852;49.908;8.126;2023-11-19T01:05:25;0.60;;;0.30;;
81396;SDS011;70852;49.908;8.126;2023-11-19T01:07:50;0.85;;;0.40;;
81396;SDS011;70852;49.908;8.126;2023-11-19T01:10:18;1.15;;;0.30;;
81396;SDS011;70852;49.908;8.126;2023-11-19T01:12:46;0.82;;;0.38;;
81396;SDS011;70852;49.908;8.126;2023-11-19T01:15:13;0.80;;;0.30;;
81396;SDS011;70852;49.908;8.126;2023-11-19T01:17:39;0.95;;;0.40;;
81396;SDS011;70852;49.908;8.126;2023-11-19T01:20:06;0.88;;;0.30;;
81396;SDS011;70852;49.908;8.126;2023-11-19T01:22:32;0.45;;;0.20;;
81396;SDS011;70852;49.908;8.126;2023-11-19T01:24:58;1.05;;;0.40;;
81396;SDS011;70852;49.908;8.126;2023-11-19T01:27:30;0.65;;;0.17;;
81396;SDS011;70852;49.908;8.126;2023-11-19T01:29:55;0.55;;;0.20;;
81396;SDS011;70852;49.908;8.126;2023-11-19T01:32:22;1.50;;;0.30;;
81396;SDS011;70852;49.908;8.126;2023-11-19T01:34:50;1.27;;;0.30;;
81396;SDS011;70852;49.908;8.126;2023-11-19T01:37:16;0.38;;;0.30;;
81396;SDS011;70852;49.908;8.126;2023-11-19T01:39:43;0.40;;;0.20;;
81396;SDS011;70852;49.908;8.126;2023-11-19T01:42:09;0.90;;;0.30;;
81396;SDS011;70852;49.908;8.126;2023-11-19T01:44:36;0.82;;;0.30;;
81396;SDS011;70852;49.908;8.126;2023-11-19T01:47:02;0.73;;;0.28;;
81396;SDS011;70852;49.908;8.126;2023-11-19T01:49:28;0.93;;;0.40;;
81396;SDS011;70852;49.908;8.126;2023-11-19T01:51:57;0.55;;;0.20;;
81396;SDS011;70852;49.908;8.126;2023-11-19T01:54:25;0.70;;;0.30;;
81396;SDS011;70852;49.908;8.126;2023-11-19T01:56:52;0.30;;;0.20;;
81396;SDS011;70852;49.908;8.126;2023-11-19T01:59:23;0.73;;;0.20;;
81396;SDS011;70852;49.908;8.126;2023-11-19T02:01:52;0.28;;;0.10;;
81396;SDS011;70852;49.908;8.126;2023-11-19T02:04:23;0.55;;;0.13;;
81396;SDS011;70852;49.908;8.126;2023-11-19T02:06:50;0.08;;;0.00;;
81396;SDS011;70852;49.908;8.126;2023-11-19T02:09:21;0.35;;;0.10;;
81396;SDS011;70852;49.908;8.126;2023-11-19T02:11:46;0.15;;;0.08;;
81396;SDS011;70852;49.908;8.126;2023-11-19T02:14:17;0.88;;;0.25;;
81396;SDS011;70852;49.908;8.126;2023-11-19T02:16:43;0.85;;;0.20;;
81396;SDS011;70852;49.908;8.126;2023-11-19T02:19:08;0.45;;;0.10;;
81396;SDS011;70852;49.908;8.126;2023-11-19T02:21:35;0.63;;;0.30;;
81396;SDS011;70852;49.908;8.126;2023-11-19T02:24:05;0.63;;;0.10;;
81396;SDS011;70852;49.908;8.126;2023-11-19T02:26:40;0.15;;;0.00;;
81396;SDS011;70852;49.908;8.126;2023-11-19T02:29:17;0.60;;;0.17;;
81396;SDS011;70852;49.908;8.126;2023-11-19T02:31:42;0.40;;;0.10;;
81396;SDS011;70852;49.908;8.126;2023-11-19T02:34:10;0.20;;;0.10;;
81396;SDS011;70852;49.908;8.126;2023-11-19T02:36:37;0.75;;;0.20;;
81396;SDS011;70852;49.908;8.126;2023-11-19T02:39:06;0.17;;;0.00;;
81396;SDS011;70852;49.908;8.126;2023-11-19T02:41:37;0.43;;;0.15;;
81396;SDS011;70852;49.908;8.126;2023-11-19T02:44:04;0.10;;;0.10;;
81396;SDS011;70852;49.908;8.126;2023-11-19T02:46:35;0.10;;;0.10;;
81396;SDS011;70852;49.908;8.126;2023-11-19T02:49:01;1.13;;;0.20;;
81396;SDS011;70852;49.908;8.126;2023-11-19T02:51:33;0.70;;;0.20;;
81396;SDS011;70852;49.908;8.126;2023-11-19T02:53:59;0.75;;;0.13;;
81396;SDS011;70852;49.908;8.126;2023-11-19T02:56:29;0.70;;;0.17;;
81396;SDS011;70852;49.908;8.126;2023-11-19T02:59:02;0.28;;;0.10;;
81396;SDS011;70852;49.908;8.126;2023-11-19T03:01:41;0.32;;;0.13;;
81396;SDS011;70852;49.908;8.126;2023-11-19T03:04:11;0.75;;;0.20;;
81396;SDS011;70852;49.908;8.126;2023-11-19T03:06:37;0.52;;;0.17;;
81396;SDS011;70852;49.908;8.126;2023-11-19T03:09:05;0.88;;;0.40;;
81396;SDS011;70852;49.908;8.126;2023-11-19T03:11:35;0.98;;;0.30;;
81396;SDS011;70852;49.908;8.126;2023-11-19T03:14:00;0.63;;;0.28;;
81396;SDS011;70852;49.908;8.126;2023-11-19T03:16:31;0.40;;;0.20;;
81396;SDS011;70852;49.908;8.126;2023-11-19T03:18:58;0.93;;;0.40;;
81396;SDS011;70852;49.908;8.126;2023-11-19T03:21:28;0.77;;;0.40;;
81396;SDS011;70852;49.908;8.126;2023-11-19T03:23:54;0.73;;;0.30;;
81396;SDS011;70852;49.908;8.126;2023-11-19T03:26:20;1.27;;;0.47;;
81396;SDS011;70852;49.908;8.126;2023-11-19T03:28:50;0.70;;;0.30;;
81396;SDS011;70852;49.908;8.126;2023-11-19T03:31:15;2.95;;;0.50;;
81396;SDS011;70852;49.908;8.126;2023-11-19T03:33:40;0.52;;;0.32;;
81396;SDS011;70852;49.908;8.126;2023-11-19T03:36:08;0.90;;;0.32;;
81396;SDS011;70852;49.908;8.126;2023-11-19T03:38:34;1.50;;;0.30;;
81396;SDS011;70852;49.908;8.126;2023-11-19T03:41:09;1.55;;;0.40;;
81396;SDS011;70852;49.908;8.126;2023-11-19T03:43:37;1.08;;;0.32;;
81396;SDS011;70852;49.908;8.126;2023-11-19T03:46:03;0.73;;;0.20;;
81396;SDS011;70852;49.908;8.126;2023-11-19T03:48:32;0.77;;;0.32;;
81396;SDS011;70852;49.908;8.126;2023-11-19T03:51:00;2.72;;;0.40;;
81396;SDS011;70852;49.908;8.126;2023-11-19T03:53:25;1.15;;;0.47;;
81396;SDS011;70852;49.908;8.126;2023-11-19T03:55:50;1.67;;;0.40;;
81396;SDS011;70852;49.908;8.126;2023-11-19T03:58:20;0.68;;;0.30;;
81396;SDS011;70852;49.908;8.126;2023-11-19T04:00:46;0.95;;;0.50;;
81396;SDS011;70852;49.908;8.126;2023-11-19T04:03:11;0.75;;;0.30;;
81396;SDS011;70852;49.908;8.126;2023-11-19T04:05:37;1.35;;;0.32;;
81396;SDS011;70852;49.908;8.126;2023-11-19T04:08:05;0.80;;;0.35;;
81396;SDS011;70852;49.908;8.126;2023-11-19T04:10:30;0.68;;;0.20;;
81396;SDS011;70852;49.908;8.126;2023-11-19T04:12:56;0.85;;;0.38;;
81396;SDS011;70852;49.908;8.126;2023-11-19T04:15:23;1.02;;;0.47;;
81396;SDS011;70852;49.908;8.126;2023-11-19T04:17:49;1.05;;;0.40;;
81396;SDS011;70852;49.908;8.126;2023-11-19T04:20:17;0.85;;;0.43;;
81396;SDS011;70852;49.908;8.126;2023-11-19T04:22:43;1.45;;;0.45;;
81396;SDS011;70852;49.908;8.126;2023-11-19T04:25:08;0.75;;;0.40;;
81396;SDS011;70852;49.908;8.126;2023-11-19T04:27:36;1.15;;;0.38;;
81396;SDS011;70852;49.908;8.126;2023-11-19T04:30:01;1.23;;;0.50;;
81396;SDS011;70852;49.908;8.126;2023-11-19T04:32:30;0.52;;;0.17;;
81396;SDS011;70852;49.908;8.126;2023-11-19T04:34:55;1.23;;;0.50;;
81396;SDS011;70852;49.908;8.126;2023-11-19T04:37:23;1.05;;;0.45;;
81396;SDS011;70852;49.908;8.126;2023-11-19T04:39:51;1.98;;;0.40;;
81396;SDS011;70852;49.908;8.126;2023-11-19T04:42:18;0.70;;;0.30;;
81396;SDS011;70852;49.908;8.126;2023-11-19T04:44:47;1.08;;;0.40;;
81396;SDS011;70852;49.908;8.126;2023-11-19T04:47:14;1.70;;;0.57;;
81396;SDS011;70852;49.908;8.126;2023-11-19T04:49:42;3.03;;;0.57;;
81396;SDS011;70852;49.908;8.126;2023-11-19T04:52:08;1.30;;;0.60;;
81396;SDS011;70852;49.908;8.126;2023-11-19T04:54:40;1.48;;;0.40;;
81396;SDS011;70852;49.908;8.126;2023-11-19T04:57:11;0.82;;;0.45;;
81396;SDS011;70852;49.908;8.126;2023-11-19T04:59:37;1.15;;;0.45;;
81396;SDS011;70852;49.908;8.126;2023-11-19T05:02:04;0.65;;;0.60;;
81396;SDS011;70852;49.908;8.126;2023-11-19T05:04:33;1.58;;;0.50;;
81396;SDS011;70852;49.908;8.126;2023-11-19T05:07:02;1.60;;;0.50;;
81396;SDS011;70852;49.908;8.126;2023-11-19T05:09:28;1.55;;;0.55;;
81396;SDS011;70852;49.908;8.126;2023-11-19T05:11:53;1.48;;;0.60;;
81396;SDS011;70852;49.908;8.126;2023-11-19T05:14:19;1.33;;;0.63;;
81396;SDS011;70852;49.908;8.126;2023-11-19T05:16:45;1.45;;;0.70;;
81396;SDS011;70852;49.908;8.126;2023-11-19T05:19:13;2.95;;;0.70;;
81396;SDS011;70852;49.908;8.126;2023-11-19T05:21:41;1.85;;;0.75;;
81396;SDS011;70852;49.908;8.126;2023-11-19T05:24:10;1.63;;;0.82;;
81396;SDS011;70852;49.908;8.126;2023-11-19T05:26:36;1.65;;;0.73;;
81396;SDS011;70852;49.908;8.126;2023-11-19T05:29:02;1.90;;;0.80;;
81396;SDS011;70852;49.908;8.126;2023-11-19T05:31:29;1.83;;;0.77;;
81396;SDS011;70852;49.908;8.126;2023-11-19T05:33:59;2.47;;;0.80;;
81396;SDS011;70852;49.908;8.126;2023-11-19T05:36:27;1.88;;;0.77;;
81396;SDS011;70852;49.908;8.126;2023-11-19T05:38:56;2.00;;;0.93;;
81396;SDS011;70852;49.908;8.126;2023-11-19T05:41:24;1.85;;;0.68;;
81396;SDS011;70852;49.908;8.126;2023-11-19T05:43:49;2.15;;;0.80;;
81396;SDS011;70852;49.908;8.126;2023-11-19T05:46:16;1.90;;;0.93;;
81396;SDS011;70852;49.908;8.126;2023-11-19T05:48:42;1.67;;;0.85;;
81396;SDS011;70852;49.908;8.126;2023-11-19T05:51:11;1.80;;;0.70;;
81396;SDS011;70852;49.908;8.126;2023-11-19T05:53:37;1.88;;;0.88;;
81396;SDS011;70852;49.908;8.126;2023-11-19T05:56:02;2.50;;;1.05;;
81396;SDS011;70852;49.908;8.126;2023-11-19T05:58:29;1.75;;;0.80;;
81396;SDS011;70852;49.908;8.126;2023-11-19T06:00:55;1.48;;;0.73;;
81396;SDS011;70852;49.908;8.126;2023-11-19T06:03:20;3.10;;;0.80;;
81396;SDS011;70852;49.908;8.126;2023-11-19T06:05:46;1.48;;;0.70;;
81396;SDS011;70852;49.908;8.126;2023-11-19T06:08:12;1.50;;;0.65;;
81396;SDS011;70852;49.908;8.126;2023-11-19T06:10:41;1.08;;;0.52;;
81396;SDS011;70852;49.908;8.126;2023-11-19T06:13:11;2.35;;;1.00;;
81396;SDS011;70852;49.908;8.126;2023-11-19T06:15:36;2.15;;;0.90;;
81396;SDS011;70852;49.908;8.126;2023-11-19T06:18:04;2.33;;;1.10;;
81396;SDS011;70852;49.908;8.126;2023-11-19T06:20:30;1.90;;;0.88;;
81396;SDS011;70852;49.908;8.126;2023-11-19T06:22:59;2.00;;;1.00;;
81396;SDS011;70852;49.908;8.126;2023-11-19T06:25:25;1.83;;;0.82;;
81396;SDS011;70852;49.908;8.126;2023-11-19T06:27:52;1.77;;;0.90;;
81396;SDS011;70852;49.908;8.126;2023-11-19T06:30:20;2.28;;;0.90;;
81396;SDS011;70852;49.908;8.126;2023-11-19T06:32:48;1.85;;;0.90;;
81396;SDS011;70852;49.908;8.126;2023-11-19T06:35:13;3.10;;;1.20;;
81396;SDS011;70852;49.908;8.126;2023-11-19T06:37:39;2.17;;;0.93;;
81396;SDS011;70852;49.908;8.126;2023-11-19T06:40:05;1.50;;;0.70;;
81396;SDS011;70852;49.908;8.126;2023-11-19T06:42:36;1.75;;;0.80;;
81396;SDS011;70852;49.908;8.126;2023-11-19T06:45:02;2.70;;;0.82;;
81396;SDS011;70852;49.908;8.126;2023-11-19T06:47:28;1.65;;;0.70;;
81396;SDS011;70852;49.908;8.126;2023-11-19T06:49:54;2.30;;;0.88;;
81396;SDS011;70852;49.908;8.126;2023-11-19T06:52:24;1.58;;;0.63;;
81396;SDS011;70852;49.908;8.126;2023-11-19T06:54:50;1.60;;;0.90;;
81396;SDS011;70852;49.908;8.126;2023-11-19T06:57:15;2.00;;;0.98;;
81396;SDS011;70852;49.908;8.126;2023-11-19T06:59:45;2.13;;;1.00;;
81396;SDS011;70852;49.908;8.126;2023-11-19T07:02:13;1.92;;;1.10;;
81396;SDS011;70852;49.908;8.126;2023-11-19T07:04:40;1.67;;;0.88;;
81396;SDS011;70852;49.908;8.126;2023-11-19T07:07:07;4.30;;;1.10;;
81396;SDS011;70852;49.908;8.126;2023-11-19T07:09:32;2.25;;;1.20;;
81396;SDS011;70852;49.908;8.126;2023-11-19T07:12:01;2.22;;;1.08;;
81396;SDS011;70852;49.908;8.126;2023-11-19T07:14:29;1.63;;;0.80;;
81396;SDS011;70852;49.908;8.126;2023-11-19T07:16:55;2.25;;;1.27;;
81396;SDS011;70852;49.908;8.126;2023-11-19T07:19:22;2.40;;;1.00;;
81396;SDS011;70852;49.908;8.126;2023-11-19T07:21:48;2.78;;;0.95;;
81396;SDS011;70852;49.908;8.126;2023-11-19T07:24:15;1.73;;;0.95;;
81396;SDS011;70852;49.908;8.126;2023-11-19T07:26:45;2.15;;;0.90;;
81396;SDS011;70852;49.908;8.126;2023-11-19T07:29:12;1.33;;;0.77;;
81396;SDS011;70852;49.908;8.126;2023-11-19T07:31:37;1.80;;;0.80;;
81396;SDS011;70852;49.908;8.126;2023-11-19T07:34:03;1.83;;;0.90;;
81396;SDS011;70852;49.908;8.126;2023-11-19T07:36:30;1.25;;;0.63;;
81396;SDS011;70852;49.908;8.126;2023-11-19T07:39:00;2.03;;;0.80;;
81396;SDS011;70852;49.908;8.126;2023-11-19T07:41:25;1.83;;;0.88;;
81396;SDS011;70852;49.908;8.126;2023-11-19T07:43:55;1.45;;;0.70;;
81396;SDS011;70852;49.908;8.126;2023-11-19T07:46:20;1.98;;;0.77;;
81396;SDS011;70852;49.908;8.126;2023-11-19T07:48:46;1.42;;;0.80;;
81396;SDS011;70852;49.908;8.126;2023-11-19T07:51:14;1.88;;;0.88;;
81396;SDS011;70852;49.908;8.126;2023-11-19T07:53:40;2.53;;;1.25;;
81396;SDS011;70852;49.908;8.126;2023-11-19T07:56:08;1.30;;;0.68;;
81396;SDS011;70852;49.908;8.126;2023-11-19T07:58:34;3.08;;;1.20;;
81396;SDS011;70852;49.908;8.126;2023-11-19T08:01:00;3.40;;;0.90;;
81396;SDS011;70852;49.908;8.126;2023-11-19T08:03:26;2.80;;;0.98;;
81396;SDS011;70852;49.908;8.126;2023-11-19T08:05:59;3.22;;;0.75;;
81396;SDS011;70852;49.908;8.126;2023-11-19T08:08:27;4.47;;;0.93;;
81396;SDS011;70852;49.908;8.126;2023-11-19T08:13:23;2.13;;;0.80;;
81396;SDS011;70852;49.908;8.126;2023-11-19T08:15:50;4.47;;;0.88;;
81396;SDS011;70852;49.908;8.126;2023-11-19T08:18:16;2.00;;;0.65;;
81396;SDS011;70852;49.908;8.126;2023-11-19T08:20:45;1.27;;;0.82;;
81396;SDS011;70852;49.908;8.126;2023-11-19T08:23:12;2.08;;;0.55;;
81396;SDS011;70852;49.908;8.126;2023-11-19T08:25:40;3.03;;;0.68;;
81396;SDS011;70852;49.908;8.126;2023-11-19T08:28:05;1.92;;;0.70;;
81396;SDS011;70852;49.908;8.126;2023-11-19T08:30:35;2.08;;;0.60;;
81396;SDS011;70852;49.908;8.126;2023-11-19T08:33:01;3.97;;;1.10;;
81396;SDS011;70852;49.908;8.126;2023-11-19T08:35:28;4.10;;;0.85;;
81396;SDS011;70852;49.908;8.126;2023-11-19T08:37:56;3.20;;;0.75;;
81396;SDS011;70852;49.908;8.126;2023-11-19T08:40:22;1.98;;;0.50;;
81396;SDS011;70852;49.908;8.126;2023-11-19T08:42:50;3.90;;;0.77;;
81396;SDS011;70852;49.908;8.126;2023-11-19T08:45:15;3.17;;;0.70;;
81396;SDS011;70852;49.908;8.126;2023-11-19T08:47:43;3.65;;;0.80;;
81396;SDS011;70852;49.908;8.126;2023-11-19T08:50:11;3.45;;;0.65;;
81396;SDS011;70852;49.908;8.126;2023-11-19T08:52:38;3.10;;;0.80;;
81396;SDS011;70852;49.908;8.126;2023-11-19T08:55:06;3.35;;;1.08;;
81396;SDS011;70852;49.908;8.126;2023-11-19T08:57:35;2.20;;;0.60;;
81396;SDS011;70852;49.908;8.126;2023-11-19T09:00:00;5.05;;;1.05;;
81396;SDS011;70852;49.908;8.126;2023-11-19T09:02:29;5.43;;;1.23;;
81396;SDS011;70852;49.908;8.126;2023-11-19T09:04:54;4.50;;;1.00;;
81396;SDS011;70852;49.908;8.126;2023-11-19T09:07:20;3.70;;;1.10;;
81396;SDS011;70852;49.908;8.126;2023-11-19T09:09:46;3.90;;;1.00;;
81396;SDS011;70852;49.908;8.126;2023-11-19T09:12:13;2.60;;;0.80;;
81396;SDS011;70852;49.908;8.126;2023-11-19T09:14:41;3.83;;;0.80;;
81396;SDS011;70852;49.908;8.126;2023-11-19T09:17:09;4.43;;;0.90;;
81396;SDS011;70852;49.908;8.126;2023-11-19T09:19:36;4.18;;;0.82;;
81396;SDS011;70852;49.908;8.126;2023-11-19T09:22:04;5.25;;;1.15;;
81396;SDS011;70852;49.908;8.126;2023-11-19T09:24:29;5.93;;;0.90;;
81396;SDS011;70852;49.908;8.126;2023-11-19T09:26:54;4.03;;;1.23;;
81396;SDS011;70852;49.908;8.126;2023-11-19T09:29:21;5.68;;;1.17;;
81396;SDS011;70852;49.908;8.126;2023-11-19T09:31:48;2.72;;;1.50;;
81396;SDS011;70852;49.908;8.126;2023-11-19T09:34:16;3.22;;;1.00;;
81396;SDS011;70852;49.908;8.126;2023-11-19T09:36:44;6.72;;;1.85;;
81396;SDS011;70852;49.908;8.126;2023-11-19T09:39:12;4.68;;;1.15;;
81396;SDS011;70852;49.908;8.126;2023-11-19T09:41:45;3.53;;;1.23;;
81396;SDS011;70852;49.908;8.126;2023-11-19T09:44:14;4.90;;;1.13;;
81396;SDS011;70852;49.908;8.126;2023-11-19T09:46:45;4.28;;;1.08;;
81396;SDS011;70852;49.908;8.126;2023-11-19T09:49:12;5.78;;;1.00;;
81396;SDS011;70852;49.908;8.126;2023-11-19T09:51:38;3.72;;;1.10;;
81396;SDS011;70852;49.908;8.126;2023-11-19T09:54:03;3.70;;;0.90;;
81396;SDS011;70852;49.908;8.126;2023-11-19T09:56:29;5.65;;;1.05;;
81396;SDS011;70852;49.908;8.126;2023-11-19T09:58:55;3.08;;;0.77;;
81396;SDS011;70852;49.908;8.126;2023-11-19T10:01:21;2.90;;;0.90;;
81396;SDS011;70852;49.908;8.126;2023-11-19T10:03:48;4.07;;;0.98;;
81396;SDS011;70852;49.908;8.126;2023-11-19T10:06:22;4.00;;;1.40;;
81396;SDS011;70852;49.908;8.126;2023-11-19T10:08:49;4.05;;;1.33;;
81396;SDS011;70852;49.908;8.126;2023-11-19T10:11:15;5.68;;;1.13;;
81396;SDS011;70852;49.908;8.126;2023-11-19T10:13:44;5.32;;;1.20;;
81396;SDS011;70852;49.908;8.126;2023-11-19T10:16:12;7.85;;;1.20;;
81396;SDS011;70852;49.908;8.126;2023-11-19T10:18:48;4.65;;;0.90;;
81396;SDS011;70852;49.908;8.126;2023-11-19T10:21:19;2.90;;;1.00;;
81396;SDS011;70852;49.908;8.126;2023-11-19T10:23:47;3.65;;;0.73;;
81396;SDS011;70852;49.908;8.126;2023-11-19T10:26:20;4.75;;;1.10;;
81396;SDS011;70852;49.908;8.126;2023-11-19T10:28:48;4.03;;;1.00;;
81396;SDS011;70852;49.908;8.126;2023-11-19T10:31:17;2.83;;;0.70;;
81396;SDS011;70852;49.908;8.126;2023-11-19T10:33:46;5.15;;;1.50;;
81396;SDS011;70852;49.908;8.126;2023-11-19T10:36:16;4.35;;;1.10;;
81396;SDS011;70852;49.908;8.126;2023-11-19T10:38:51;3.97;;;0.98;;
81396;SDS011;70852;49.908;8.126;2023-11-19T10:41:31;3.45;;;1.00;;
81396;SDS011;70852;49.908;8.126;2023-11-19T10:43:57;5.20;;;1.30;;
81396;SDS011;70852;49.908;8.126;2023-11-19T10:46:23;5.25;;;1.20;;
81396;SDS011;70852;49.908;8.126;2023-11-19T10:49:07;4.53;;;0.90;;
81396;SDS011;70852;49.908;8.126;2023-11-19T10:51:35;4.80;;;0.90;;
81396;SDS011;70852;49.908;8.126;2023-11-19T10:54:02;3.75;;;0.77;;
81396;SDS011;70852;49.908;8.126;2023-11-19T10:56:32;6.88;;;1.60;;
81396;SDS011;70852;49.908;8.126;2023-11-19T10:59:05;4.40;;;1.00;;
81396;SDS011;70852;49.908;8.126;2023-11-19T11:01:45;6.07;;;1.17;;
81396;SDS011;70852;49.908;8.126;2023-11-19T11:04:14;6.97;;;0.95;;
81396;SDS011;70852;49.908;8.126;2023-11-19T11:06:47;3.47;;;1.23;;
81396;SDS011;70852;49.908;8.126;2023-11-19T11:09:15;3.40;;;0.90;;
81396;SDS011;70852;49.908;8.126;2023-11-19T11:11:47;2.17;;;0.70;;
81396;SDS011;70852;49.908;8.126;2023-11-19T11:14:13;3.97;;;0.90;;
81396;SDS011;70852;49.908;8.126;2023-11-19T11:16:42;3.47;;;0.90;;
81396;SDS011;70852;49.908;8.126;2023-11-19T11:19:08;5.95;;;0.90;;
81396;SDS011;70852;49.908;8.126;2023-11-19T11:21:35;2.33;;;0.70;;
81396;SDS011;70852;49.908;8.126;2023-11-19T11:26:56;4.70;;;0.70;;
81396;SDS011;70852;49.908;8.126;2023-11-19T11:32:25;1.75;;;0.52;;
81396;SDS011;70852;49.908;8.126;2023-11-19T11:37:47;3.28;;;0.93;;
81396;SDS011;70852;49.908;8.126;2023-11-19T11:40:15;4.72;;;0.70;;
81396;SDS011;70852;49.908;8.126;2023-11-19T11:42:43;5.40;;;1.02;;
81396;SDS011;70852;49.908;8.126;2023-11-19T11:45:12;4.32;;;1.02;;
81396;SDS011;70852;49.908;8.126;2023-11-19T11:50:12;4.38;;;0.93;;
81396;SDS011;70852;49.908;8.126;2023-11-19T11:57:52;4.40;;;0.52;;
81396;SDS011;70852;49.908;8.126;2023-11-19T12:00:26;4.55;;;0.85;;
81396;SDS011;70852;49.908;8.126;2023-11-19T12:03:02;3.97;;;0.90;;
81396;SDS011;70852;49.908;8.126;2023-11-19T12:05:32;7.07;;;1.17;;
81396;SDS011;70852;49.908;8.126;2023-11-19T12:08:05;6.15;;;0.73;;
81396;SDS011;70852;49.908;8.126;2023-11-19T12:10:53;3.47;;;0.68;;
81396;SDS011;70852;49.908;8.126;2023-11-19T12:13:19;3.17;;;0.90;;
81396;SDS011;70852;49.908;8.126;2023-11-19T12:18:31;4.28;;;1.40;;
81396;SDS011;70852;49.908;8.126;2023-11-19T12:21:00;6.63;;;1.40;;
81396;SDS011;70852;49.908;8.126;2023-11-19T12:23:30;8.18;;;1.98;;
81396;SDS011;70852;49.908;8.126;2023-11-19T12:25:59;7.35;;;1.45;;
81396;SDS011;70852;49.908;8.126;2023-11-19T12:28:27;3.97;;;1.58;;
81396;SDS011;70852;49.908;8.126;2023-11-19T12:30:52;4.82;;;1.30;;
81396;SDS011;70852;49.908;8.126;2023-11-19T12:33:18;4.68;;;1.00;;
81396;SDS011;70852;49.908;8.126;2023-11-19T12:35:50;4.57;;;0.95;;
81396;SDS011;70852;49.908;8.126;2023-11-19T12:38:21;4.60;;;1.20;;
81396;SDS011;70852;49.908;8.126;2023-11-19T12:41:01;4.03;;;1.08;;
81396;SDS011;70852;49.908;8.126;2023-11-19T12:43:36;5.75;;;0.90;;
81396;SDS011;70852;49.908;8.126;2023-11-19T12:46:03;6.43;;;0.90;;
81396;SDS011;70852;49.908;8.126;2023-11-19T12:48:49;6.57;;;1.30;;
81396;SDS011;70852;49.908;8.126;2023-11-19T12:51:15;5.63;;;1.02;;
81396;SDS011;70852;49.908;8.126;2023-11-19T12:53:47;4.50;;;1.10;;
81396;SDS011;70852;49.908;8.126;2023-11-19T12:56:21;6.60;;;0.80;;
81396;SDS011;70852;49.908;8.126;2023-11-19T12:58:48;4.78;;;1.40;;
81396;SDS011;70852;49.908;8.126;2023-11-19T13:01:20;6.00;;;0.80;;
81396;SDS011;70852;49.908;8.126;2023-11-19T13:03:48;5.85;;;1.38;;
81396;SDS011;70852;49.908;8.126;2023-11-19T13:06:15;5.47;;;0.98;;
81396;SDS011;70852;49.908;8.126;2023-11-19T13:08:41;3.35;;;0.73;;
81396;SDS011;70852;49.908;8.126;2023-11-19T13:11:07;5.93;;;1.05;;
81396;SDS011;70852;49.908;8.126;2023-11-19T13:13:56;5.15;;;1.00;;
81396;SDS011;70852;49.908;8.126;2023-11-19T13:16:29;4.22;;;1.02;;
81396;SDS011;70852;49.908;8.126;2023-11-19T13:18:54;4.63;;;1.17;;
81396;SDS011;70852;49.908;8.126;2023-11-19T13:21:20;9.07;;;0.93;;
81396;SDS011;70852;49.908;8.126;2023-11-19T13:23:45;7.40;;;1.05;;
81396;SDS011;70852;49.908;8.126;2023-11-19T13:26:11;4.57;;;0.80;;
81396;SDS011;70852;49.908;8.126;2023-11-19T13:28:37;5.88;;;1.10;;
81396;SDS011;70852;49.908;8.126;2023-11-19T13:31:03;6.68;;;1.17;;
81396;SDS011;70852;49.908;8.126;2023-11-19T13:33:28;8.50;;;1.20;;
81396;SDS011;70852;49.908;8.126;2023-11-19T13:35:56;7.60;;;1.10;;
81396;SDS011;70852;49.908;8.126;2023-11-19T13:38:33;4.95;;;1.02;;
81396;SDS011;70852;49.908;8.126;2023-11-19T13:41:00;4.32;;;1.15;;
81396;SDS011;70852;49.908;8.126;2023-11-19T13:43:26;4.45;;;0.82;;
81396;SDS011;70852;49.908;8.126;2023-11-19T13:45:53;3.67;;;0.88;;
81396;SDS011;70852;49.908;8.126;2023-11-19T13:48:19;5.70;;;1.05;;
81396;SDS011;70852;49.908;8.126;2023-11-19T13:50:44;4.82;;;0.88;;
81396;SDS011;70852;49.908;8.126;2023-11-19T13:53:10;5.43;;;0.95;;
81396;SDS011;70852;49.908;8.126;2023-11-19T13:55:35;5.60;;;1.05;;
81396;SDS011;70852;49.908;8.126;2023-11-19T13:58:00;4.78;;;1.10;;
81396;SDS011;70852;49.908;8.126;2023-11-19T14:00:26;5.85;;;1.00;;
81396;SDS011;70852;49.908;8.126;2023-11-19T14:02:53;5.72;;;1.45;;
81396;SDS011;70852;49.908;8.126;2023-11-19T14:05:21;5.90;;;1.20;;
81396;SDS011;70852;49.908;8.126;2023-11-19T14:07:48;4.75;;;0.75;;
81396;SDS011;70852;49.908;8.126;2023-11-19T14:10:14;4.88;;;1.10;;
81396;SDS011;70852;49.908;8.126;2023-11-19T14:12:41;5.32;;;0.88;;
81396;SDS011;70852;49.908;8.126;2023-11-19T14:15:10;5.00;;;1.10;;
81396;SDS011;70852;49.908;8.126;2023-11-19T14:17:38;5.95;;;1.25;;
81396;SDS011;70852;49.908;8.126;2023-11-19T14:20:04;3.90;;;0.88;;
81396;SDS011;70852;49.908;8.126;2023-11-19T14:22:41;3.33;;;0.90;;
81396;SDS011;70852;49.908;8.126;2023-11-19T14:25:08;3.63;;;0.73;;
81396;SDS011;70852;49.908;8.126;2023-11-19T14:27:41;4.65;;;0.98;;
81396;SDS011;70852;49.908;8.126;2023-11-19T14:30:08;7.97;;;0.90;;
81396;SDS011;70852;49.908;8.126;2023-11-19T14:32:38;4.28;;;0.95;;
81396;SDS011;70852;49.908;8.126;2023-11-19T14:35:05;3.88;;;0.80;;
81396;SDS011;70852;49.908;8.126;2023-11-19T14:37:31;3.08;;;0.90;;
81396;SDS011;70852;49.908;8.126;2023-11-19T14:39:57;6.32;;;1.15;;
81396;SDS011;70852;49.908;8.126;2023-11-19T14:42:24;5.97;;;0.80;;
81396;SDS011;70852;49.908;8.126;2023-11-19T14:44:52;11.55;;;1.10;;
81396;SDS011;70852;49.908;8.126;2023-11-19T14:47:20;6.05;;;1.25;;
81396;SDS011;70852;49.908;8.126;2023-11-19T14:49:46;4.10;;;0.77;;
81396;SDS011;70852;49.908;8.126;2023-11-19T14:52:13;4.45;;;0.93;;
81396;SDS011;70852;49.908;8.126;2023-11-19T14:54:39;3.55;;;0.93;;
81396;SDS011;70852;49.908;8.126;2023-11-19T14:57:05;3.88;;;0.90;;
81396;SDS011;70852;49.908;8.126;2023-11-19T14:59:33;5.47;;;0.73;;
81396;SDS011;70852;49.908;8.126;2023-11-19T15:02:00;5.28;;;1.10;;
81396;SDS011;70852;49.908;8.126;2023-11-19T15:04:26;8.77;;;1.48;;
81396;SDS011;70852;49.908;8.126;2023-11-19T15:06:56;5.38;;;1.17;;
81396;SDS011;70852;49.908;8.126;2023-11-19T15:09:21;5.82;;;1.60;;
81396;SDS011;70852;49.908;8.126;2023-11-19T15:11:47;4.60;;;1.42;;
81396;SDS011;70852;49.908;8.126;2023-11-19T15:14:12;4.63;;;1.27;;